الصفحة الرئيسية
METAR-TAF:

METAR-TAF

مطار :

Munda, New Georgia, جزر سولومون

دائرة عرض: 8-19-41S, خط طول: 157-15-47E, ارتفاع: 3 متر

مراقبة الطقس الحالي

تاريخ ووقت الإصدار 23ساعات و 44 دقيقة قبل الساعة 21:00UTC
رياح هادئة
درجة الحرارة 26°درجة مئوية
الرطوبة 94%
ضغط 1011 hPa
الرؤية 10 كم أو أكثر
غيوم قليلة على ارتفاع 1600 قدم
غيوم متفرقة على ارتفاع 30000 قدم

METAR: AGGM 162100Z 00000KT 9999 FEW016 SCT300 26/25 Q1011

زمن: 07:44 (20:44 UTC)

توقعات

تاريخ ووقت الإصدار 3ساعات و 21 دقيقة قبل الساعة 17:23UTC
التوقعات صالحة من17 الساعة 18 UTC إلى 18 الساعة 18 UTC
ريح 10 عقدة من الجنوب الشرقي
الرؤية 10 كم أو أكثر
غيوم متفرقة على ارتفاع 1800 قدم
نظرية الاحتمالات 40%
بين IN و TE UTC
الرؤية: 1007 متر
غيوم مفككة على ارتفاع 1500 قدم
غيوم قليلة على ارتفاع 1600 قدم, مزنة ركامية.

TAF: AGGM 171723Z 1718/1818 14010KT 9999 SCT018 PROB40 INTER 1801/1806 5000 TSSH BKN015 FEW016CB Q 1007 1009 1009 1007

أرصاد الطقس والتوقعات من أكثر من 4000 مطار (تقارير الطقس للمطار METAR والتنبؤ بالطقس بالمطارTAF).

المحطات المتاحة هي النقط الصفراء والحمراء على الخريطة.

حرك المؤشر فوق النقطة لمعرفة اسم المحطة.

ثم انقر لمعرفة أرصاد وتوقعات الطقس.

لتغيير الخارطة: اضغط على الأزرار الخضراء مع رمز الصليب الأسود للتكبير. على الزر الأخضر مع شرطة للتصغير، أو على الأسهم الخضراء للخرائط المجاورة.


METAR-TAF: